Time;durP1;ratioP1;P1;durP2;ratioP2;P2;SDS_P1;SDS_P2;PMS_P1;PMS_P2;Temp;Humidity;BMP_temperature;BMP_pressure;BME280_temperature;BME280_humidity;BME280_pressure;Samples;Min_cycle;Max_cycle;Signal;HPM_P1;HPM_P2
2022/05/24 00:00:12;;;;;;;9.80;9.20;;;;;;;17.62;63.59;92389.69;5028872;28;20194;-74
2022/05/24 00:02:37;;;;;;;10.70;10.00;;;;;;;17.62;63.69;92394.97;5028363;28;20309;-74
2022/05/24 00:05:03;;;;;;;8.93;8.43;;;;;;;17.45;64.66;92378.19;5028847;28;20238;-74
2022/05/24 00:07:30;;;;;;;9.30;8.70;;;;;;;17.48;65.08;92382.81;5029102;28;20249;-74
2022/05/24 00:09:55;;;;;;;9.27;8.67;;;;;;;17.37;65.26;92371.09;5029372;28;20186;-74
2022/05/24 00:12:21;;;;;;;10.13;9.43;;;;;;;17.43;65.37;92375.06;5028681;28;20194;-74
2022/05/24 00:17:30;;;;;;;10.63;9.93;;;;;;;17.19;65.36;92372.34;5029246;28;20206;-74
2022/05/24 00:19:56;;;;;;;8.90;8.23;;;;;;;17.21;65.91;92374.66;5028481;28;20198;-73
2022/05/24 00:22:21;;;;;;;9.97;9.30;;;;;;;17.11;64.70;92360.00;5029777;28;20191;-74
2022/05/24 00:24:47;;;;;;;9.83;9.23;;;;;;;17.05;65.80;92371.84;5028589;28;20214;-74
2022/05/24 00:27:12;;;;;;;10.03;9.10;;;;;;;16.83;66.65;92340.53;5028482;28;20238;-74
2022/05/24 00:29:38;;;;;;;9.67;9.07;;;;;;;16.92;67.28;92372.09;5029541;28;20183;-74
2022/05/24 00:32:03;;;;;;;10.03;9.40;;;;;;;16.74;67.45;92371.47;5027404;28;20215;-74
2022/05/24 00:34:29;;;;;;;10.53;9.77;;;;;;;16.37;67.20;92337.28;5026853;28;20194;-74
2022/05/24 00:36:54;;;;;;;10.83;10.23;;;;;;;16.57;67.63;92382.16;5028777;28;20307;-74
2022/05/24 00:39:20;;;;;;;11.30;10.27;;;;;;;16.34;67.58;92388.00;5028374;28;20237;-73
2022/05/24 00:42:08;;;;;;;11.50;10.53;;;;;;;16.20;68.62;92380.31;5026726;28;20230;-74
2022/05/24 00:44:38;;;;;;;10.93;10.23;;;;;;;16.33;69.15;92371.41;5026079;28;20221;-74
2022/05/24 00:47:34;;;;;;;10.10;9.37;;;;;;;16.47;69.18;92385.13;5026802;28;20227;-74
2022/05/24 00:50:06;;;;;;;10.23;9.53;;;;;;;16.51;69.06;92391.34;5028768;28;20241;-74
2022/05/24 00:52:54;;;;;;;10.33;9.60;;;;;;;16.50;69.05;92391.66;5027743;28;20186;-74
2022/05/24 00:55:22;;;;;;;9.80;9.20;;;;;;;16.40;69.60;92387.50;5027197;28;20253;-74
2022/05/24 00:58:11;;;;;;;9.80;8.93;;;;;;;16.44;70.28;92388.41;5030432;28;20183;-74
2022/05/24 01:00:37;;;;;;;9.90;9.30;;;;;;;16.35;70.76;92390.31;5027427;28;20286;-74
2022/05/24 01:03:03;;;;;;;10.50;9.80;;;;;;;16.41;70.34;92377.69;5028747;28;20257;-74
2022/05/24 01:05:31;;;;;;;10.97;9.93;;;;;;;16.26;70.39;92380.91;5027492;28;20226;-74
2022/05/24 01:07:57;;;;;;;10.30;9.70;;;;;;;16.37;70.93;92401.31;5028245;28;20222;-74
2022/05/24 01:10:48;;;;;;;10.20;9.40;;;;;;;16.28;70.93;92382.09;5023887;28;20233;-74
2022/05/24 01:13:21;;;;;;;10.40;9.53;;;;;;;16.32;70.91;92382.25;5028263;28;20191;-73
2022/05/24 01:15:47;;;;;;;9.60;9.10;;;;;;;16.44;70.56;92387.59;5026893;28;20290;-74
2022/05/24 01:18:14;;;;;;;9.87;9.17;;;;;;;16.65;69.32;92393.72;5028180;28;20187;-74
2022/05/24 01:20:44;;;;;;;9.33;8.83;;;;;;;16.52;70.48;92395.50;5028602;28;20233;-74
2022/05/24 01:23:40;;;;;;;9.83;9.23;;;;;;;16.21;71.37;92352.09;5026466;28;20206;-74
2022/05/24 01:26:32;;;;;;;10.77;10.07;;;;;;;16.55;71.33;92396.72;5029240;28;20293;-74
2022/05/24 01:29:00;;;;;;;9.27;8.67;;;;;;;16.32;71.20;92392.78;5010601;28;20215;-74
2022/05/24 01:36:09;;;;;;;10.37;9.67;;;;;;;16.27;71.20;92396.38;5032180;28;20218;-74
2022/05/24 01:36:59;;;;;;;9.20;8.70;;;;;;;16.36;71.25;92386.56;5031274;28;20229;-74
2022/05/24 01:39:24;;;;;;;10.13;9.57;;;;;;;16.36;71.50;92383.19;5031731;28;20190;-73
2022/05/24 01:41:51;;;;;;;9.83;9.13;;;;;;;16.21;71.86;92368.69;5031975;28;20223;-74
2022/05/24 01:44:24;;;;;;;10.27;9.63;;;;;;;15.94;72.54;92374.38;5030079;28;20218;-74
2022/05/24 01:46:50;;;;;;;9.40;8.90;;;;;;;16.01;72.21;92380.72;5028792;28;20230;-74
2022/05/24 01:49:31;;;;;;;9.13;8.63;;;;;;;16.01;72.11;92377.31;5031832;28;20199;-73
2022/05/24 01:52:07;;;;;;;9.27;8.77;;;;;;;16.25;69.74;92374.84;5032108;28;20274;-74
2022/05/24 01:54:38;;;;;;;9.23;8.73;;;;;;;15.94;70.90;92374.38;5031996;28;20182;-74
2022/05/24 01:57:12;;;;;;;9.57;8.87;;;;;;;15.78;72.63;92389.16;5030264;28;20230;-74
2022/05/24 01:59:43;;;;;;;10.90;9.93;;;;;;;15.79;72.76;92390.69;5032796;28;20194;-74
2022/05/24 02:02:09;;;;;;;10.67;9.97;;;;;;;15.94;73.28;92385.69;5029009;28;20238;-73
2022/05/24 02:04:34;;;;;;;9.87;9.10;;;;;;;15.69;74.12;92389.19;5031260;28;20214;-74
2022/05/24 02:07:06;;;;;;;10.47;9.77;;;;;;;15.82;72.97;92388.22;5029976;28;20250;-74
2022/05/24 02:09:35;;;;;;;12.20;10.30;;;;;;;15.63;74.13;92406.22;5030743;28;20191;-73
2022/05/24 02:12:10;;;;;;;10.53;9.63;;;;;;;15.77;73.18;92398.13;5030499;28;20329;-74
2022/05/24 02:14:39;;;;;;;10.90;10.27;;;;;;;15.75;74.35;92397.69;5031049;28;20186;-74
2022/05/24 02:17:11;;;;;;;10.43;9.63;;;;;;;15.60;73.54;92392.91;5030823;28;20231;-74
2022/05/24 02:19:41;;;;;;;9.93;9.30;;;;;;;15.64;74.84;92401.75;5029954;28;20194;-75
2022/05/24 02:22:13;;;;;;;10.47;9.73;;;;;;;15.75;73.88;92405.59;5031081;28;20222;-74
2022/05/24 02:24:38;;;;;;;11.93;11.03;;;;;;;16.11;71.51;92398.00;5029511;28;20226;-74
2022/05/24 02:27:04;;;;;;;9.47;8.77;;;;;;;16.00;72.65;92402.06;5031192;28;20243;-74
2022/05/24 02:29:31;;;;;;;11.17;10.57;;;;;;;15.93;73.19;92399.16;5033821;28;20206;-74
2022/05/24 02:31:57;;;;;;;10.67;10.07;;;;;;;15.97;73.21;92384.28;5031262;28;20272;-73
2022/05/24 02:34:22;;;;;;;9.93;9.17;;;;;;;16.07;73.39;92362.88;5029335;28;20217;-74
2022/05/24 02:36:48;;;;;;;10.37;9.57;;;;;;;15.99;73.50;92343.38;5029611;28;20226;-74
2022/05/24 02:39:13;;;;;;;11.37;10.67;;;;;;;16.08;72.91;92353.88;5030177;28;20187;-73
2022/05/24 02:41:39;;;;;;;9.97;9.27;;;;;;;16.37;71.66;92367.06;5029717;28;20249;-74
2022/05/24 02:44:11;;;;;;;10.60;9.90;;;;;;;15.95;73.38;92381.97;5030703;28;20194;-73
2022/05/24 02:46:40;;;;;;;11.00;10.20;;;;;;;15.73;73.21;92384.06;5029804;28;20237;-74
2022/05/24 02:49:07;;;;;;;10.53;9.77;;;;;;;15.99;71.56;92408.44;5029810;28;20189;-74
2022/05/24 02:51:34;;;;;;;11.63;10.90;;;;;;;15.83;73.41;92413.44;5030568;28;20223;-74
2022/05/24 02:54:00;;;;;;;11.37;10.40;;;;;;;15.77;72.21;92425.25;5030758;28;20240;-75
2022/05/24 02:56:26;;;;;;;11.53;10.73;;;;;;;15.68;72.91;92418.44;5029429;28;20238;-74
2022/05/24 02:58:52;;;;;;;11.33;10.60;;;;;;;15.61;74.00;92410.28;5030121;28;20186;-75
2022/05/24 03:01:23;;;;;;;11.10;10.40;;;;;;;15.65;73.66;92413.81;5030435;28;20254;-75
2022/05/24 03:03:50;;;;;;;10.33;9.63;;;;;;;15.66;73.15;92407.44;5030442;28;20187;-75
2022/05/24 03:06:17;;;;;;;11.10;10.20;;;;;;;15.85;72.07;92410.50;5030390;28;20234;-75
2022/05/24 03:11:27;;;;;;;12.03;11.30;;;;;;;15.68;71.89;92400.03;5028685;28;20254;-87
2022/05/24 03:16:53;;;;;;;11.27;10.30;;;;;;;15.68;72.73;92402.66;5040116;28;20233;-87
2022/05/24 03:19:19;;;;;;;11.60;10.80;;;;;;;15.61;72.95;92405.00;5027129;28;20203;-83
2022/05/24 03:21:45;;;;;;;10.47;9.87;;;;;;;15.86;72.57;92415.44;5030669;28;20233;-86
2022/05/24 03:24:10;;;;;;;10.10;9.40;;;;;;;15.81;72.44;92401.69;5030777;28;20230;-86
2022/05/24 03:26:37;;;;;;;11.17;10.37;;;;;;;15.67;73.01;92401.13;5030170;28;20234;-86
2022/05/24 03:29:04;;;;;;;10.73;9.83;;;;;;;15.72;73.34;92395.69;5030099;28;20197;-86
2022/05/24 03:31:30;;;;;;;10.23;9.63;;;;;;;15.70;74.50;92400.50;5029303;28;20234;-83
2022/05/24 03:33:55;;;;;;;9.87;9.30;;;;;;;15.89;73.01;92406.91;5029868;28;20199;-85
2022/05/24 03:36:22;;;;;;;10.70;9.87;;;;;;;15.82;73.89;92392.72;5029979;28;20241;-86
2022/05/24 03:38:47;;;;;;;10.50;9.80;;;;;;;15.94;73.90;92395.44;5057171;28;20191;-86
2022/05/24 03:41:13;;;;;;;10.63;10.03;;;;;;;15.82;73.44;92385.59;5030019;28;20237;-86
2022/05/24 03:43:39;;;;;;;10.37;9.70;;;;;;;16.44;72.10;92401.59;5029704;28;20302;-85
2022/05/24 03:46:07;;;;;;;10.63;9.93;;;;;;;16.49;70.99;92395.38;5028439;28;20227;-85
2022/05/24 03:48:32;;;;;;;11.07;10.37;;;;;;;16.53;71.73;92402.31;5029222;28;20199;-86
2022/05/24 03:50:58;;;;;;;11.07;10.37;;;;;;;16.51;71.98;92409.00;5029893;28;20249;-86
2022/05/24 03:53:25;;;;;;;10.77;10.17;;;;;;;16.82;70.99;92409.41;5054685;28;20222;-87
2022/05/24 03:55:51;;;;;;;10.30;9.53;;;;;;;16.89;70.93;92402.53;5029430;28;20725;-85
2022/05/24 03:58:17;;;;;;;11.00;10.20;;;;;;;17.14;70.34;92406.06;5029586;28;20202;-87
2022/05/24 04:00:44;;;;;;;10.33;9.43;;;;;;;17.29;69.02;92421.31;5028666;28;20226;-85
2022/05/24 04:03:09;;;;;;;10.40;9.70;;;;;;;17.42;68.44;92417.63;5028667;28;20214;-86
2022/05/24 04:05:36;;;;;;;10.37;9.67;;;;;;;17.55;68.11;92416.59;5028741;28;20222;-85
2022/05/24 04:08:02;;;;;;;10.63;9.83;;;;;;;17.47;68.99;92428.78;5029746;28;20218;-84
2022/05/24 04:10:29;;;;;;;10.90;10.20;;;;;;;17.55;69.14;92424.53;5028904;28;20222;-86
2022/05/24 04:12:54;;;;;;;11.30;10.53;;;;;;;17.72;68.16;92431.50;5029624;28;20198;-85
2022/05/24 04:15:20;;;;;;;11.10;10.40;;;;;;;17.50;67.95;92399.09;5028883;28;20222;-85
2022/05/24 04:17:46;;;;;;;10.87;10.00;;;;;;;17.77;68.17;92439.22;5028705;28;20242;-85
2022/05/24 04:20:13;;;;;;;11.07;10.37;;;;;;;17.33;67.79;92398.47;5026841;28;20843;-85
2022/05/24 04:22:38;;;;;;;10.60;9.90;;;;;;;17.56;68.30;92436.63;5028382;28;20191;-85
2022/05/24 04:25:05;;;;;;;11.53;10.73;;;;;;;17.43;67.15;92435.78;5027930;28;20197;-85
2022/05/24 04:27:30;;;;;;;10.47;9.67;;;;;;;17.82;65.43;92429.22;5027970;28;20190;-85
2022/05/24 04:29:56;;;;;;;9.50;8.90;;;;;;;17.96;65.13;92423.66;5029338;28;20604;-83
2022/05/24 04:32:21;;;;;;;12.13;11.07;;;;;;;18.29;64.58;92434.94;5028886;28;20931;-87
2022/05/24 04:34:47;;;;;;;10.60;10.00;;;;;;;17.69;65.14;92419.72;5028465;28;20301;-86
2022/05/24 04:37:12;;;;;;;11.67;10.87;;;;;;;18.36;63.77;92427.22;5028051;28;20247;-86
2022/05/24 04:39:38;;;;;;;13.00;11.10;;;;;;;18.65;61.88;92427.00;5028374;28;20197;-83
2022/05/24 04:42:21;;;;;;;10.13;9.43;;;;;;;19.02;60.10;92404.69;5028589;28;20224;-80
2022/05/24 04:44:50;;;;;;;10.43;9.67;;;;;;;18.87;60.88;92424.69;5028167;28;20211;-76
2022/05/24 04:47:17;;;;;;;12.50;11.57;;;;;;;19.12;59.96;92425.41;5026203;28;20228;-75
2022/05/24 04:49:46;;;;;;;11.17;10.47;;;;;;;19.11;59.70;92419.31;5026791;28;20190;-76
2022/05/24 04:52:13;;;;;;;11.27;10.57;;;;;;;18.91;62.05;92425.56;5026540;28;20221;-75
2022/05/24 04:54:40;;;;;;;13.00;11.90;;;;;;;18.94;60.74;92426.78;5027755;28;20188;-75
2022/05/24 04:57:07;;;;;;;12.27;11.07;;;;;;;19.58;58.93;92432.03;5027736;28;20316;-76
2022/05/24 04:59:32;;;;;;;12.00;10.90;;;;;;;19.67;58.42;92441.38;5027644;28;20238;-76
2022/05/24 05:01:58;;;;;;;11.43;10.63;;;;;;;19.19;60.08;92436.22;5028568;28;20249;-75
2022/05/24 05:04:24;;;;;;;11.77;10.80;;;;;;;19.53;59.05;92456.09;5031403;28;20274;-75
2022/05/24 05:06:50;;;;;;;11.53;10.53;;;;;;;19.24;59.50;92457.13;5031087;28;20226;-75
2022/05/24 05:09:16;;;;;;;11.43;10.63;;;;;;;19.82;58.75;92467.13;5030798;28;20240;-77
2022/05/24 05:11:42;;;;;;;12.53;11.57;;;;;;;19.82;57.27;92435.31;5031388;28;20224;-77
2022/05/24 05:14:09;;;;;;;12.47;11.27;;;;;;;19.55;58.87;92459.94;5032067;28;20235;-79
2022/05/24 05:16:36;;;;;;;11.97;10.87;;;;;;;19.16;60.54;92477.31;5031193;28;20284;-78
2022/05/24 05:19:11;;;;;;;12.23;11.33;;;;;;;20.03;57.35;92475.63;5032066;28;20196;-78
2022/05/24 05:21:39;;;;;;;12.13;11.10;;;;;;;19.72;57.36;92486.13;5031151;28;20225;-78
2022/05/24 05:24:06;;;;;;;12.20;11.13;;;;;;;19.92;57.26;92468.50;5030638;28;20184;-78
2022/05/24 05:26:33;;;;;;;12.50;11.60;;;;;;;19.87;55.87;92482.78;5030443;28;20254;-79
2022/05/24 05:28:58;;;;;;;12.30;11.40;;;;;;;19.35;57.53;92481.31;5031585;28;20180;-78
2022/05/24 05:31:26;;;;;;;12.87;11.87;;;;;;;19.37;57.50;92460.53;5031437;28;20228;-77
2022/05/24 05:33:53;;;;;;;11.60;10.57;;;;;;;19.29;58.82;92490.56;5031300;28;20188;-77
2022/05/24 05:36:20;;;;;;;12.37;11.33;;;;;;;19.57;58.26;92484.22;5030262;28;20231;-77
2022/05/24 05:38:47;;;;;;;12.30;11.20;;;;;;;20.27;56.18;92490.66;5031133;28;20189;-78
2022/05/24 05:41:18;;;;;;;12.17;11.10;;;;;;;20.67;55.11;92502.66;5028748;28;20295;-78
2022/05/24 05:43:44;;;;;;;11.20;10.50;;;;;;;23.82;46.90;92497.56;5030388;28;20223;-78
2022/05/24 05:46:10;;;;;;;11.05;10.18;;;;;;;27.31;38.05;92508.25;5030934;28;20228;-79
2022/05/24 05:48:36;;;;;;;10.70;9.80;;;;;;;28.28;35.98;92513.81;5031357;28;20204;-77
2022/05/24 05:51:03;;;;;;;11.48;10.70;;;;;;;25.11;41.08;92514.97;5030633;28;20319;-76
2022/05/24 05:53:29;;;;;;;10.55;9.63;;;;;;;29.86;33.33;92522.72;5030723;28;20198;-76
2022/05/24 05:55:54;;;;;;;9.90;9.15;;;;;;;30.97;31.08;92515.25;5030787;28;20233;-76
2022/05/24 05:58:20;;;;;;;11.43;10.45;;;;;;;30.92;30.69;92531.13;5031616;28;20198;-76
2022/05/24 06:00:48;;;;;;;9.75;9.05;;;;;;;30.01;31.67;92510.66;5030965;28;20242;-76
2022/05/24 06:03:14;;;;;;;10.13;9.43;;;;;;;30.76;31.38;92533.66;5031135;28;20221;-75
2022/05/24 06:05:39;;;;;;;9.77;9.00;;;;;;;30.06;31.68;92529.81;5030906;28;20857;-73
2022/05/24 06:08:08;;;;;;;10.82;9.23;;;;;;;30.99;30.44;92539.13;5030803;28;20186;-73
2022/05/24 06:10:35;;;;;;;9.85;9.05;;;;;;;30.58;30.65;92538.50;5029143;28;20755;-73
2022/05/24 06:13:00;;;;;;;10.65;9.75;;;;;;;29.74;32.34;92540.91;5028984;28;20195;-73
2022/05/24 06:15:27;;;;;;;11.02;9.88;;;;;;;31.94;28.89;92551.91;5030047;28;20341;-73
2022/05/24 06:17:53;;;;;;;9.93;9.02;;;;;;;32.04;28.36;92550.19;5030912;28;20614;-73
2022/05/24 06:20:21;;;;;;;12.00;10.93;;;;;;;30.95;30.58;92562.69;5030478;28;20294;-74
2022/05/24 06:22:49;;;;;;;10.15;9.45;;;;;;;31.64;29.25;92560.13;5029678;28;20214;-73
2022/05/24 06:25:15;;;;;;;10.27;9.38;;;;;;;30.07;32.00;92565.59;5029452;28;20250;-78
2022/05/24 06:27:41;;;;;;;9.98;9.13;;;;;;;31.22;29.74;92542.63;5030704;28;20214;-78
2022/05/24 06:30:07;;;;;;;10.02;9.35;;;;;;;29.51;32.66;92554.16;5028888;28;20191;-75
2022/05/24 06:32:33;;;;;;;10.18;9.18;;;;;;;30.55;31.28;92555.47;5028051;28;20271;-75
2022/05/24 06:34:58;;;;;;;9.98;9.07;;;;;;;33.11;27.74;92555.84;5028583;28;20190;-75
2022/05/24 06:37:24;;;;;;;9.80;9.10;;;;;;;32.09;28.53;92545.09;5029739;28;20211;-75
2022/05/24 06:39:49;;;;;;;10.43;9.57;;;;;;;28.39;33.56;92525.22;5029929;28;20198;-77
2022/05/24 06:42:15;;;;;;;10.88;9.82;;;;;;;24.99;40.71;92522.50;5028318;28;20235;-76
2022/05/24 06:44:41;;;;;;;13.15;12.15;;;;;;;24.18;44.58;92508.31;5029137;28;20215;-76
2022/05/24 06:47:07;;;;;;;12.52;11.20;;;;;;;22.75;48.02;92499.03;5028864;28;20241;-74
2022/05/24 06:49:33;;;;;;;11.63;10.65;;;;;;;23.19;46.48;92487.53;5029477;28;20206;-74
2022/05/24 06:51:59;;;;;;;11.00;10.10;;;;;;;23.40;46.26;92493.22;5028457;28;20267;-74
2022/05/24 06:54:24;;;;;;;12.20;10.98;;;;;;;23.57;46.71;92487.38;5029824;28;20212;-77
2022/05/24 06:56:50;;;;;;;10.90;10.07;;;;;;;23.16;47.15;92492.84;5029532;28;20217;-74
2022/05/24 07:04:44;;;;;;;12.52;11.43;;;;;;;22.66;48.93;92496.63;5029622;28;20277;-76
2022/05/24 07:07:10;;;;;;;11.60;10.70;;;;;;;22.50;49.80;92492.50;5025795;28;20233;-74
2022/05/24 07:09:37;;;;;;;12.65;11.60;;;;;;;22.10;50.65;92491.00;5028804;28;20196;-75
2022/05/24 07:12:03;;;;;;;11.05;10.25;;;;;;;22.07;51.91;92493.63;5029152;28;20242;-74
2022/05/24 07:14:32;;;;;;;12.55;11.25;;;;;;;22.27;49.97;92479.94;5027354;28;20194;-77
2022/05/24 07:16:58;;;;;;;11.43;10.52;;;;;;;22.79;49.64;92499.84;5028907;28;20289;-77
2022/05/24 07:19:25;;;;;;;12.27;11.20;;;;;;;22.17;49.77;92495.69;5029206;28;20195;-77
2022/05/24 07:21:50;;;;;;;11.98;10.88;;;;;;;21.90;52.03;92507.31;5029311;28;20743;-75
2022/05/24 07:24:16;;;;;;;11.27;10.48;;;;;;;21.79;52.03;92522.31;5029482;28;20192;-73
2022/05/24 07:26:43;;;;;;;11.65;10.73;;;;;;;22.80;47.67;92512.81;5028717;28;20233;-76
2022/05/24 07:29:08;;;;;;;11.90;10.70;;;;;;;23.09;48.46;92514.03;5030054;28;20231;-80
2022/05/24 07:31:34;;;;;;;12.38;11.27;;;;;;;23.19;48.13;92511.53;5027921;28;20225;-74
2022/05/24 07:34:01;;;;;;;12.05;10.93;;;;;;;23.29;47.40;92504.84;5054721;28;20280;-76
2022/05/24 07:36:27;;;;;;;12.25;11.25;;;;;;;22.03;50.40;92464.31;5028702;28;20256;-77
2022/05/24 07:38:52;;;;;;;12.25;11.25;;;;;;;21.80;50.48;92482.09;5027967;28;20213;-76
2022/05/24 07:46:46;;;;;;;11.70;10.88;;;;;;;22.38;52.09;92503.31;5028048;28;20238;-75
2022/05/24 07:49:11;;;;;;;11.57;10.60;;;;;;;22.46;49.53;92502.31;5028679;28;20182;-74
2022/05/24 07:51:37;;;;;;;13.85;11.15;;;;;;;22.27;51.73;92494.38;5026699;28;20229;-76
2022/05/24 07:54:03;;;;;;;11.50;10.55;;;;;;;22.50;51.03;92489.81;5028135;28;20216;-75
2022/05/24 07:56:28;;;;;;;11.52;10.60;;;;;;;23.05;48.92;92513.22;5027932;28;20226;-75
2022/05/24 07:58:54;;;;;;;12.38;11.32;;;;;;;23.04;48.39;92501.78;5028836;28;20202;-78
2022/05/24 08:01:19;;;;;;;11.18;10.38;;;;;;;23.07;47.65;92484.31;5028095;28;20271;-76
2022/05/24 08:03:45;;;;;;;11.30;10.50;;;;;;;22.84;48.03;92481.69;5027307;28;20186;-76
2022/05/24 08:06:10;;;;;;;12.00;11.07;;;;;;;22.13;51.74;92473.59;5027002;28;20243;-77
2022/05/24 08:08:36;;;;;;;13.52;12.18;;;;;;;22.99;49.53;92469.38;5028025;28;20192;-77
2022/05/24 08:11:02;;;;;;;11.88;10.98;;;;;;;23.22;48.31;92486.81;5028940;28;20339;-79
2022/05/24 08:13:28;;;;;;;12.38;11.02;;;;;;;23.25;48.49;92496.78;5028152;28;20193;-78
2022/05/24 08:15:54;;;;;;;13.60;12.23;;;;;;;22.75;50.51;92491.81;5027164;28;20872;-82
2022/05/24 08:18:21;;;;;;;11.50;10.50;;;;;;;22.98;50.37;92505.88;5025185;28;20181;-78
2022/05/24 08:20:47;;;;;;;11.52;10.18;;;;;;;23.24;48.98;92510.44;5028503;28;20221;-77
2022/05/24 08:23:14;;;;;;;12.95;10.77;;;;;;;22.99;50.20;92498.66;5028422;28;20233;-76
2022/05/24 08:25:40;;;;;;;12.45;11.30;;;;;;;23.13;48.96;92504.97;5027636;28;20215;-76
2022/05/24 08:28:07;;;;;;;12.35;11.25;;;;;;;22.45;51.73;92503.41;5027383;28;20226;-76
2022/05/24 08:30:35;;;;;;;11.88;10.68;;;;;;;22.80;50.91;92488.84;5029177;28;20223;-75
2022/05/24 08:33:04;;;;;;;11.40;10.40;;;;;;;23.27;49.25;92513.19;5027916;28;20239;-75
2022/05/24 08:35:31;;;;;;;11.85;10.85;;;;;;;23.59;49.14;92495.78;5028229;28;20255;-75
2022/05/24 08:37:56;;;;;;;11.48;10.57;;;;;;;24.10;47.32;92498.69;5028915;28;20243;-75
2022/05/24 08:40:22;;;;;;;12.68;11.60;;;;;;;23.97;45.87;92502.72;5026123;28;20239;-75
2022/05/24 08:43:06;;;;;;;12.85;11.65;;;;;;;23.70;47.49;92501.25;5028150;28;20253;-74
2022/05/24 08:48:30;;;;;;;11.82;10.90;;;;;;;23.76;47.72;92497.13;5025404;28;20197;-75
2022/05/24 08:51:09;;;;;;;12.02;10.75;;;;;;;23.74;47.78;92512.69;5025724;28;20251;-74
2022/05/24 08:53:42;;;;;;;12.25;11.23;;;;;;;23.64;48.01;92514.09;5024978;28;20221;-75
2022/05/24 08:56:14;;;;;;;12.63;11.63;;;;;;;23.31;49.56;92471.41;5028086;28;20244;-75
2022/05/24 08:58:50;;;;;;;12.68;11.70;;;;;;;23.53;48.95;92507.84;5028528;28;20187;-75
2022/05/24 09:01:25;;;;;;;11.45;10.27;;;;;;;23.62;48.86;92508.38;5026008;28;20236;-75
2022/05/24 09:03:51;;;;;;;10.43;9.63;;;;;;;23.52;48.89;92510.88;5029402;28;20777;-75
2022/05/24 09:06:41;;;;;;;12.00;10.75;;;;;;;23.48;51.10;92516.19;5027621;28;20248;-75
2022/05/24 09:09:37;;;;;;;10.88;10.02;;;;;;;23.51;48.69;92515.47;5028564;28;20312;-75
2022/05/24 09:12:11;;;;;;;11.93;10.82;;;;;;;23.16;50.60;92517.56;5027163;28;20230;-75
2022/05/24 09:14:43;;;;;;;11.85;10.95;;;;;;;23.14;52.09;92511.06;5028277;28;20212;-74
2022/05/24 09:17:31;;;;;;;11.75;10.60;;;;;;;23.40;50.76;92514.53;5027953;28;20233;-75
2022/05/24 09:19:56;;;;;;;10.27;9.45;;;;;;;23.60;50.56;92488.53;5028166;28;20212;-75
2022/05/24 09:22:22;;;;;;;9.77;8.98;;;;;;;24.05;49.45;92495.59;5028450;28;20201;-75
2022/05/24 09:24:56;;;;;;;11.15;10.23;;;;;;;24.04;49.78;92489.50;5027456;28;20227;-75
2022/05/24 09:27:24;;;;;;;10.40;9.50;;;;;;;23.84;50.63;92490.75;5027590;28;20217;-75
2022/05/24 09:29:52;;;;;;;10.55;9.75;;;;;;;24.02;51.43;92493.63;5029461;28;20213;-75
2022/05/24 09:32:18;;;;;;;11.38;10.38;;;;;;;24.35;49.28;92488.28;5027655;28;20323;-75
2022/05/24 09:34:44;;;;;;;10.98;10.18;;;;;;;23.77;50.89;92471.25;5026854;28;20190;-75
2022/05/24 09:37:30;;;;;;;10.38;9.57;;;;;;;24.23;49.78;92476.00;5028137;28;20294;-75
2022/05/24 09:40:01;;;;;;;12.38;9.68;;;;;;;24.22;50.61;92484.34;5027370;28;20909;-75
2022/05/24 09:42:31;;;;;;;11.23;10.23;;;;;;;24.21;49.70;92482.81;5027530;28;20193;-75
2022/05/24 09:45:07;;;;;;;10.48;9.70;;;;;;;24.43;49.42;92488.00;5028314;28;20252;-74
2022/05/24 09:47:54;;;;;;;11.98;10.77;;;;;;;24.51;49.13;92486.94;5029444;28;20192;-75
2022/05/24 09:50:34;;;;;;;11.60;10.70;;;;;;;24.35;49.65;92498.97;5030109;28;20236;-75
2022/05/24 09:53:02;;;;;;;10.05;9.35;;;;;;;23.91;50.44;92492.75;5031548;28;20217;-75
2022/05/24 09:55:31;;;;;;;10.93;10.05;;;;;;;24.64;50.93;92496.22;5028798;28;20238;-75
2022/05/24 09:58:15;;;;;;;11.52;10.65;;;;;;;24.48;48.42;92487.69;5029516;28;20203;-75
2022/05/24 10:01:09;;;;;;;10.98;10.00;;;;;;;24.76;49.48;92498.63;5031202;28;20242;-75
2022/05/24 10:03:39;;;;;;;11.35;10.63;;;;;;;24.91;48.29;92502.19;5031127;28;20210;-74
2022/05/24 10:06:22;;;;;;;11.27;10.48;;;;;;;24.92;47.75;92493.03;5031547;28;20281;-75
2022/05/24 10:08:53;;;;;;;12.23;11.07;;;;;;;24.53;48.47;92497.25;5030236;28;20233;-75
2022/05/24 10:11:38;;;;;;;11.38;10.48;;;;;;;24.37;49.81;92497.50;5031562;28;20237;-75
2022/05/24 10:14:06;;;;;;;10.43;9.63;;;;;;;25.00;48.74;92492.75;5032071;28;20195;-75
2022/05/24 10:16:49;;;;;;;10.98;10.23;;;;;;;24.95;49.32;92495.75;5030293;28;20238;-74
2022/05/24 10:19:33;;;;;;;11.98;10.77;;;;;;;25.03;48.72;92499.25;5030995;28;20194;-75
2022/05/24 10:22:08;;;;;;;10.18;9.48;;;;;;;24.87;48.50;92493.41;5030097;28;20244;-74
2022/05/24 10:25:04;;;;;;;11.65;10.75;;;;;;;24.84;48.86;92500.22;5031814;28;20226;-75
2022/05/24 10:27:39;;;;;;;10.77;9.98;;;;;;;25.04;50.01;92488.19;5028247;28;20293;-75
2022/05/24 10:30:11;;;;;;;10.45;9.75;;;;;;;24.75;47.46;92491.75;5031194;28;20192;-75
2022/05/24 10:39:34;;;;;;;11.05;10.15;;;;;;;24.64;49.71;92484.78;5031353;28;20226;-75
2022/05/24 10:42:09;;;;;;;10.88;10.07;;;;;;;24.64;49.69;92482.84;5030474;28;20248;-75
2022/05/24 10:45:03;;;;;;;11.35;10.45;;;;;;;24.61;49.22;92480.94;5031608;28;20219;-75
2022/05/24 10:47:49;;;;;;;11.55;10.65;;;;;;;24.57;49.96;92476.69;5031301;28;20272;-75
2022/05/24 10:50:37;;;;;;;11.98;10.98;;;;;;;24.60;50.29;92465.28;5031005;28;20231;-75
2022/05/24 10:53:05;;;;;;;10.63;9.70;;;;;;;24.76;50.14;92466.59;5029786;28;20177;-75
2022/05/24 10:55:36;;;;;;;10.48;9.65;;;;;;;24.57;52.33;92458.00;5030349;28;20261;-75
2022/05/24 10:58:05;;;;;;;11.98;10.85;;;;;;;24.63;51.41;92467.22;5030284;28;20305;-75
2022/05/24 11:00:43;;;;;;;11.77;10.88;;;;;;;25.09;50.03;92471.06;5028716;28;20278;-75
2022/05/24 11:03:15;;;;;;;11.73;10.75;;;;;;;25.18;51.14;92468.84;5027492;28;20234;-75
2022/05/24 11:05:59;;;;;;;12.52;11.20;;;;;;;25.24;48.16;92475.34;5029851;28;20245;-75
2022/05/24 11:08:43;;;;;;;11.93;10.82;;;;;;;25.20;50.48;92474.56;5030642;28;20198;-74
2022/05/24 11:11:34;;;;;;;10.48;9.65;;;;;;;25.53;47.86;92479.75;5029895;28;20305;-75
2022/05/24 11:14:04;;;;;;;11.57;10.57;;;;;;;25.19;48.14;92471.13;5028416;28;20208;-75
2022/05/24 11:16:46;;;;;;;11.75;10.85;;;;;;;25.10;49.67;92459.22;5028865;28;20241;-75
2022/05/24 11:19:16;;;;;;;13.38;10.50;;;;;;;24.92;50.43;92444.97;5028448;28;20252;-75
2022/05/24 11:21:53;;;;;;;10.60;9.88;;;;;;;25.02;51.03;92449.63;5029314;28;20221;-74
2022/05/24 11:24:29;;;;;;;11.35;10.40;;;;;;;25.38;50.37;92446.06;5028150;28;20231;-75
2022/05/24 11:26:57;;;;;;;10.65;9.82;;;;;;;25.47;49.32;92438.47;5028117;28;20246;-75
2022/05/24 11:29:33;;;;;;;10.50;9.73;;;;;;;25.57;49.56;92427.09;5030987;28;20216;-75
2022/05/24 11:32:06;;;;;;;10.55;9.85;;;;;;;25.74;49.49;92429.06;5029882;28;20237;-75
2022/05/24 11:34:40;;;;;;;11.05;10.15;;;;;;;25.63;47.95;92414.88;5029903;28;20190;-75
2022/05/24 11:37:11;;;;;;;10.85;9.95;;;;;;;25.60;49.34;92428.22;5029004;28;20244;-75
2022/05/24 11:39:40;;;;;;;11.95;10.95;;;;;;;25.48;48.21;92410.59;5055628;28;20194;-75
2022/05/24 11:42:29;;;;;;;11.18;10.27;;;;;;;25.58;48.06;92422.50;5028736;28;20259;-75
2022/05/24 11:45:00;;;;;;;11.75;10.57;;;;;;;25.81;47.69;92415.72;5029759;28;20205;-74
2022/05/24 11:47:34;;;;;;;11.52;10.52;;;;;;;25.92;47.31;92413.84;5028109;28;20242;-75
2022/05/24 11:50:22;;;;;;;11.18;10.27;;;;;;;25.65;49.04;92407.22;5027892;28;20208;-75
2022/05/24 11:53:09;;;;;;;11.35;10.57;;;;;;;25.57;48.38;92400.34;5022466;28;20197;-75
2022/05/24 11:55:40;;;;;;;10.88;9.93;;;;;;;25.28;50.50;92395.97;5028184;28;20255;-75
2022/05/24 11:58:29;;;;;;;10.90;10.15;;;;;;;25.64;48.72;92388.88;5028381;28;20182;-75
2022/05/24 12:00:59;;;;;;;10.82;9.93;;;;;;;25.68;47.96;92385.13;5025661;28;20234;-75
2022/05/24 12:09:16;;;;;;;10.20;9.32;;;;;;;26.11;48.63;92365.38;5028665;28;20202;-75
2022/05/24 12:11:42;;;;;;;10.55;9.70;;;;;;;26.38;47.76;92371.91;5028492;28;20234;-75